Time;durP1;ratioP1;P1;durP2;ratioP2;P2;SDS_P1;SDS_P2;PMS_P1;PMS_P2;Temp;Humidity;BMP_temperature;BMP_pressure;BME280_temperature;BME280_humidity;BME280_pressure;Samples;Min_cycle;Max_cycle;Signal;HPM_P1;HPM_P2
2021/12/22 00:01:31;;;;;;;860.45;795.97;;;-2.70;99.90;;;;;;5032384;28;20202;-82
2021/12/22 00:03:58;;;;;;;859.47;794.75;;;-2.70;99.90;;;;;;5033385;28;20228;-83
2021/12/22 00:06:29;;;;;;;869.67;804.25;;;-2.70;99.90;;;;;;5033291;28;20194;-83
2021/12/22 00:08:57;;;;;;;869.63;805.08;;;-2.80;99.90;;;;;;5032886;28;20212;-84
2021/12/22 00:11:24;;;;;;;868.33;804.30;;;-2.70;99.90;;;;;;5033306;28;20225;-82
2021/12/22 00:13:51;;;;;;;872.13;807.53;;;-2.80;99.90;;;;;;5032960;28;20190;-82
2021/12/22 00:16:18;;;;;;;871.70;807.78;;;-2.80;99.90;;;;;;5033250;28;20212;-82
2021/12/22 00:18:45;;;;;;;870.22;806.47;;;-2.90;99.90;;;;;;5033626;28;20200;-82
2021/12/22 00:21:14;;;;;;;885.78;821.88;;;-2.90;99.90;;;;;;5034211;28;20258;-83
2021/12/22 00:23:43;;;;;;;886.28;821.72;;;-2.90;99.90;;;;;;5032719;28;20198;-83
2021/12/22 00:26:10;;;;;;;868.97;806.03;;;-2.90;99.90;;;;;;5033210;28;20257;-82
2021/12/22 00:28:37;;;;;;;879.13;815.10;;;-3.00;99.90;;;;;;5032982;28;20599;-83
2021/12/22 00:31:11;;;;;;;849.63;786.85;;;-3.00;99.90;;;;;;5032710;28;20257;-83
2021/12/22 00:33:45;;;;;;;845.55;783.90;;;-3.00;99.90;;;;;;5033252;28;20229;-83
2021/12/22 00:36:12;;;;;;;843.58;782.08;;;-3.00;99.90;;;;;;5032996;28;20276;-83
2021/12/22 00:38:38;;;;;;;845.42;783.88;;;-3.10;99.90;;;;;;5033237;28;20206;-82
2021/12/22 00:41:07;;;;;;;846.53;784.42;;;-3.10;99.90;;;;;;5034256;28;20203;-83
2021/12/22 00:43:34;;;;;;;841.20;779.65;;;-3.10;99.90;;;;;;5033073;28;20277;-82
2021/12/22 00:46:00;;;;;;;833.70;771.90;;;-3.10;99.90;;;;;;5032880;28;20222;-83
2021/12/22 00:48:45;;;;;;;834.97;773.17;;;-3.10;99.90;;;;;;5035529;28;20175;-82
2021/12/22 00:51:12;;;;;;;832.90;771.40;;;-3.20;99.90;;;;;;5032118;28;20354;-82
2021/12/22 00:53:39;;;;;;;835.28;773.42;;;-3.20;99.90;;;;;;5032380;28;20201;-82
2021/12/22 00:56:08;;;;;;;835.30;773.85;;;-3.20;99.90;;;;;;5032193;28;20230;-83
2021/12/22 00:58:34;;;;;;;830.88;768.90;;;-3.10;99.90;;;;;;5032076;28;20195;-82
2021/12/22 01:01:02;;;;;;;822.38;760.83;;;-3.20;99.90;;;;;;5032559;28;20241;-83
2021/12/22 01:03:29;;;;;;;819.28;756.97;;;-3.10;99.90;;;;;;5032431;28;20214;-83
2021/12/22 01:05:56;;;;;;;843.58;780.47;;;-3.20;99.90;;;;;;5032188;28;20190;-82
2021/12/22 01:08:23;;;;;;;828.05;766.72;;;-3.10;99.90;;;;;;5031017;28;20199;-82
2021/12/22 01:10:50;;;;;;;821.17;759.75;;;-3.00;99.90;;;;;;5031486;28;20273;-83
2021/12/22 01:13:19;;;;;;;831.47;769.63;;;-2.90;99.90;;;;;;5032957;28;20278;-83
2021/12/22 01:15:46;;;;;;;816.15;754.88;;;-3.00;99.90;;;;;;5034707;28;20186;-83
2021/12/22 01:18:15;;;;;;;811.55;750.45;;;-3.00;99.90;;;;;;5039209;28;20170;-82
2021/12/22 01:20:58;;;;;;;819.80;759.03;;;-3.00;99.90;;;;;;5039246;28;20175;-83
2021/12/22 01:23:25;;;;;;;818.33;756.92;;;-3.00;99.90;;;;;;5033197;28;20222;-83
2021/12/22 01:25:52;;;;;;;815.42;754.15;;;-3.00;99.90;;;;;;5032235;28;20198;-82
2021/12/22 01:28:23;;;;;;;814.65;753.33;;;-3.00;99.90;;;;;;5032530;28;20222;-82
2021/12/22 01:30:50;;;;;;;827.13;765.58;;;-3.00;99.90;;;;;;5033011;28;20194;-83
2021/12/22 01:33:18;;;;;;;813.63;752.40;;;-2.90;99.90;;;;;;5037939;28;20190;-83
2021/12/22 01:35:46;;;;;;;811.55;751.00;;;-3.00;99.90;;;;;;5038754;28;20174;-83
2021/12/22 01:38:13;;;;;;;826.03;763.35;;;-2.90;99.90;;;;;;5038912;28;20174;-82
2021/12/22 01:40:43;;;;;;;821.10;757.97;;;-2.90;99.90;;;;;;5034503;28;20250;-83
2021/12/22 01:43:11;;;;;;;813.08;750.75;;;-2.90;99.90;;;;;;5031669;28;20616;-83
2021/12/22 01:45:57;;;;;;;801.55;741.50;;;-2.80;99.90;;;;;;5031778;28;20203;-82
2021/12/22 01:51:27;;;;;;;801.00;741.75;;;-2.90;99.90;;;;;;5022435;28;20228;-82
2021/12/22 01:53:59;;;;;;;811.90;753.13;;;-3.00;99.90;;;;;;5031291;28;20203;-83
2021/12/22 01:56:28;;;;;;;794.28;734.75;;;-2.90;99.90;;;;;;5031451;28;20222;-83
2021/12/22 01:58:56;;;;;;;799.42;739.72;;;-2.90;99.90;;;;;;5031444;28;20206;-83
2021/12/22 02:01:27;;;;;;;790.75;731.50;;;-2.80;99.90;;;;;;5030866;28;20257;-82
2021/12/22 02:03:55;;;;;;;795.03;734.63;;;-2.90;99.90;;;;;;5030444;28;20198;-82
2021/12/22 02:06:23;;;;;;;789.72;730.13;;;-2.90;99.90;;;;;;5031043;28;20258;-83
2021/12/22 02:08:52;;;;;;;795.40;734.53;;;-2.70;99.90;;;;;;5030567;28;20187;-83
2021/12/22 02:11:20;;;;;;;799.35;739.33;;;-2.80;99.90;;;;;;5030743;28;20202;-82
2021/12/22 02:13:51;;;;;;;787.40;727.42;;;-2.70;99.90;;;;;;5030853;28;20259;-83
2021/12/22 02:16:25;;;;;;;793.38;734.13;;;-2.70;99.90;;;;;;5030399;28;20280;-83
2021/12/22 02:18:54;;;;;;;812.58;752.03;;;-2.70;99.90;;;;;;5030772;28;20202;-83
2021/12/22 02:21:25;;;;;;;810.55;750.55;;;-2.70;99.90;;;;;;5031306;28;20241;-82
2021/12/22 02:23:53;;;;;;;810.35;751.40;;;-2.70;99.90;;;;;;5030735;28;20269;-83
2021/12/22 02:26:24;;;;;;;811.13;752.72;;;-2.80;99.90;;;;;;5030420;28;20201;-83
2021/12/22 02:28:58;;;;;;;809.58;751.38;;;-2.80;99.90;;;;;;5030921;28;20194;-83
2021/12/22 02:31:26;;;;;;;815.65;757.08;;;-2.90;99.90;;;;;;5030790;28;20195;-83
2021/12/22 02:33:53;;;;;;;824.00;764.30;;;-2.90;99.90;;;;;;5031100;28;20194;-83
2021/12/22 02:36:24;;;;;;;803.60;745.67;;;-2.90;99.90;;;;;;5032969;28;20206;-82
2021/12/22 02:38:53;;;;;;;807.13;749.33;;;-3.00;99.90;;;;;;5031280;28;20194;-84
2021/12/22 02:41:23;;;;;;;827.67;768.72;;;-3.00;99.90;;;;;;5030653;28;20186;-83
2021/12/22 02:43:53;;;;;;;820.35;761.10;;;-2.90;99.90;;;;;;5030195;28;20267;-83
2021/12/22 02:46:22;;;;;;;802.45;743.75;;;-2.80;99.90;;;;;;5031059;28;20199;-83
2021/12/22 02:48:49;;;;;;;809.45;750.95;;;-2.90;99.90;;;;;;5030347;28;20205;-83
2021/12/22 02:51:17;;;;;;;810.50;752.45;;;-2.90;99.90;;;;;;5029820;28;20198;-82
2021/12/22 02:53:51;;;;;;;803.08;745.47;;;-2.90;99.90;;;;;;5030781;28;20229;-83
2021/12/22 02:56:31;;;;;;;810.75;753.40;;;-2.90;99.90;;;;;;5030531;28;20202;-83
2021/12/22 02:59:05;;;;;;;812.20;754.60;;;-2.90;99.90;;;;;;5030436;28;20186;-83
2021/12/22 03:04:25;;;;;;;807.22;751.03;;;-3.00;99.90;;;;;;5013620;28;20167;-83
2021/12/22 03:06:56;;;;;;;799.78;743.97;;;-3.20;99.90;;;;;;5030470;28;20203;-84
2021/12/22 03:09:27;;;;;;;798.30;742.35;;;-3.20;99.90;;;;;;5030464;28;20226;-83
2021/12/22 03:11:56;;;;;;;792.72;738.03;;;-3.20;99.90;;;;;;5030904;28;20224;-83
2021/12/22 03:14:24;;;;;;;794.63;740.03;;;-3.40;99.90;;;;;;5028735;28;20195;-82
2021/12/22 03:16:52;;;;;;;750.83;697.45;;;-3.40;99.90;;;;;;5028168;28;20214;-82
2021/12/22 03:19:21;;;;;;;757.40;703.53;;;-3.50;99.90;;;;;;5024915;28;20199;-81
2021/12/22 03:21:49;;;;;;;755.70;701.70;;;-3.60;99.90;;;;;;5027074;28;20224;-83
2021/12/22 03:24:19;;;;;;;754.00;700.03;;;-3.60;99.90;;;;;;5029540;28;20677;-83
2021/12/22 03:26:47;;;;;;;753.22;698.63;;;-3.60;99.90;;;;;;5029130;28;20205;-83
2021/12/22 03:29:17;;;;;;;754.38;700.28;;;-3.60;99.90;;;;;;5025625;28;20258;-83
2021/12/22 03:31:44;;;;;;;753.72;698.30;;;-3.50;99.90;;;;;;5028916;28;20286;-83
2021/12/22 03:34:12;;;;;;;736.20;681.42;;;-3.70;99.90;;;;;;5021998;28;20194;-83
2021/12/22 03:36:41;;;;;;;725.45;670.05;;;-3.60;99.90;;;;;;5029865;28;20215;-84
2021/12/22 03:39:08;;;;;;;730.38;675.60;;;-3.60;99.90;;;;;;5027441;28;20202;-84
2021/12/22 03:41:35;;;;;;;734.58;680.78;;;-3.60;99.90;;;;;;5031700;28;20233;-83
2021/12/22 03:44:04;;;;;;;738.60;684.17;;;-3.70;99.90;;;;;;5027655;28;20198;-82
2021/12/22 03:46:31;;;;;;;754.03;698.80;;;-3.60;99.90;;;;;;5033241;28;20210;-83
2021/12/22 03:48:58;;;;;;;734.55;680.45;;;-3.70;99.90;;;;;;5032684;28;20202;-83
2021/12/22 03:51:25;;;;;;;755.88;700.85;;;-3.70;99.90;;;;;;5032474;28;20225;-83
2021/12/22 03:53:52;;;;;;;744.90;691.10;;;-3.70;99.90;;;;;;5032844;28;20200;-83
2021/12/22 03:56:19;;;;;;;758.70;702.17;;;-3.70;99.90;;;;;;5033033;28;20206;-82
2021/12/22 03:58:46;;;;;;;738.53;686.20;;;-3.70;99.90;;;;;;5032776;28;20198;-83
2021/12/22 04:01:15;;;;;;;744.97;690.95;;;-3.90;99.90;;;;;;5032635;28;20197;-81
2021/12/22 04:03:44;;;;;;;759.28;704.08;;;-3.90;99.90;;;;;;5032164;28;20203;-83
2021/12/22 04:06:11;;;;;;;759.50;704.70;;;-4.00;99.90;;;;;;5030791;28;20198;-83
2021/12/22 04:08:38;;;;;;;767.17;711.60;;;-3.80;99.90;;;;;;5029318;28;20214;-83
2021/12/22 04:11:05;;;;;;;764.58;709.78;;;-3.80;99.90;;;;;;5030573;28;20610;-83
2021/12/22 04:13:32;;;;;;;757.28;702.35;;;-3.70;99.90;;;;;;5028840;28;20241;-83
2021/12/22 04:15:58;;;;;;;744.95;690.33;;;-3.80;99.90;;;;;;5029376;28;20202;-83
2021/12/22 04:18:26;;;;;;;751.83;697.22;;;-3.70;99.90;;;;;;5030847;28;20738;-83
2021/12/22 04:20:53;;;;;;;757.45;703.92;;;-3.70;99.90;;;;;;5031213;28;20197;-84
2021/12/22 04:23:20;;;;;;;742.80;689.65;;;-3.60;99.90;;;;;;5031362;28;20230;-83
2021/12/22 04:25:47;;;;;;;752.35;698.45;;;-3.70;99.90;;;;;;5032622;28;20202;-83
2021/12/22 04:28:14;;;;;;;744.78;692.25;;;-3.70;99.90;;;;;;5032082;28;20241;-83
2021/12/22 04:30:45;;;;;;;753.85;699.30;;;-3.70;99.90;;;;;;5026804;28;20208;-84
2021/12/22 04:33:14;;;;;;;752.15;698.35;;;-3.80;99.90;;;;;;5030549;28;20301;-83
2021/12/22 04:35:42;;;;;;;758.40;704.35;;;-3.80;99.90;;;;;;5025693;28;20191;-83
2021/12/22 04:38:09;;;;;;;762.08;707.90;;;-3.80;99.90;;;;;;5026840;28;20765;-82
2021/12/22 04:40:36;;;;;;;727.90;674.85;;;-3.80;99.90;;;;;;5031482;28;20222;-83
2021/12/22 04:43:03;;;;;;;727.58;675.17;;;-3.80;99.90;;;;;;5032078;28;20218;-84
2021/12/22 04:45:31;;;;;;;754.22;701.97;;;-3.90;99.90;;;;;;5032157;28;20282;-83
2021/12/22 04:47:57;;;;;;;729.67;678.95;;;-3.90;99.90;;;;;;5031110;28;20195;-83
2021/12/22 04:50:24;;;;;;;762.42;710.33;;;-3.90;99.90;;;;;;5032006;28;20202;-83
2021/12/22 04:52:58;;;;;;;752.65;700.63;;;-3.90;99.90;;;;;;5031296;28;20218;-83
2021/12/22 04:55:26;;;;;;;750.13;697.20;;;-3.90;99.90;;;;;;5032162;28;20296;-83
2021/12/22 04:57:54;;;;;;;752.90;700.20;;;-3.90;99.90;;;;;;5031737;28;20222;-83
2021/12/22 05:00:22;;;;;;;742.70;690.80;;;-3.90;99.90;;;;;;5031734;28;20198;-84
2021/12/22 05:02:49;;;;;;;757.95;705.90;;;-4.00;99.90;;;;;;5032177;28;20202;-82
2021/12/22 05:05:16;;;;;;;770.97;717.78;;;-4.00;99.90;;;;;;5031574;28;20202;-83
2021/12/22 05:07:44;;;;;;;775.85;721.00;;;-3.90;99.90;;;;;;5031599;28;20201;-83
2021/12/22 05:10:12;;;;;;;769.20;714.65;;;-3.80;99.90;;;;;;5031415;28;20203;-83
2021/12/22 05:12:39;;;;;;;758.38;706.03;;;-3.70;99.90;;;;;;5029775;28;20217;-83
2021/12/22 05:15:06;;;;;;;770.40;716.45;;;-3.80;99.90;;;;;;5029424;28;20225;-84
2021/12/22 05:18:01;;;;;;;764.65;710.30;;;-3.60;99.90;;;;;;5024538;28;20234;-83
2021/12/22 05:20:27;;;;;;;764.75;711.22;;;-3.70;99.90;;;;;;5030651;28;20225;-83
2021/12/22 05:22:54;;;;;;;794.13;737.40;;;-3.60;99.90;;;;;;5025636;28;20229;-83
2021/12/22 05:25:22;;;;;;;773.08;718.22;;;-3.50;99.90;;;;;;5024794;28;20210;-83
2021/12/22 05:27:49;;;;;;;775.88;721.65;;;-3.60;99.90;;;;;;5027667;28;20199;-83
2021/12/22 05:30:16;;;;;;;776.25;721.72;;;-3.50;99.90;;;;;;5029340;28;20226;-82
2021/12/22 05:32:43;;;;;;;777.92;723.78;;;-3.50;99.90;;;;;;5009837;28;20282;-83
2021/12/22 05:35:11;;;;;;;774.08;720.20;;;-3.60;99.90;;;;;;5010455;28;20210;-83
2021/12/22 05:37:39;;;;;;;778.20;723.55;;;-3.60;99.90;;;;;;5028769;28;20282;-84
2021/12/22 05:40:08;;;;;;;762.25;707.40;;;-3.40;99.90;;;;;;5029676;28;20194;-83
2021/12/22 05:42:36;;;;;;;784.92;730.05;;;-3.40;99.90;;;;;;5029955;28;20230;-83
2021/12/22 05:45:04;;;;;;;773.08;718.17;;;-3.30;99.90;;;;;;5029590;28;20214;-83
2021/12/22 05:47:31;;;;;;;780.60;724.95;;;-3.30;99.90;;;;;;5030152;28;20262;-83
2021/12/22 05:49:58;;;;;;;779.67;722.92;;;-3.20;99.90;;;;;;5028327;28;20204;-83
2021/12/22 05:52:24;;;;;;;778.15;722.15;;;-3.20;99.90;;;;;;5026476;28;20214;-83
2021/12/22 05:54:51;;;;;;;791.47;736.45;;;-3.10;99.90;;;;;;5030121;28;20212;-83
2021/12/22 05:57:18;;;;;;;792.40;736.72;;;-3.10;99.90;;;;;;5029752;28;20669;-83
2021/12/22 05:59:46;;;;;;;784.22;728.45;;;-3.00;99.90;;;;;;5029194;28;20201;-83
2021/12/22 06:02:13;;;;;;;804.70;748.88;;;-3.10;99.90;;;;;;5031281;28;20225;-83
2021/12/22 06:04:39;;;;;;;804.00;748.55;;;-3.10;99.90;;;;;;5028925;28;20572;-83
2021/12/22 06:07:06;;;;;;;805.00;749.80;;;-3.00;99.90;;;;;;5028885;28;20209;-83
2021/12/22 06:09:33;;;;;;;790.13;735.13;;;-3.10;99.90;;;;;;5028987;28;20198;-83
2021/12/22 06:12:00;;;;;;;779.17;725.88;;;-3.20;99.90;;;;;;5030319;28;20221;-82
2021/12/22 06:14:26;;;;;;;775.78;723.08;;;-3.20;99.90;;;;;;5031162;28;20221;-83
2021/12/22 06:16:55;;;;;;;763.05;710.70;;;-3.30;99.90;;;;;;5030953;28;20674;-83
2021/12/22 06:19:22;;;;;;;785.90;732.20;;;-3.30;99.90;;;;;;5029951;28;20250;-83
2021/12/22 06:21:50;;;;;;;776.50;723.58;;;-3.30;99.90;;;;;;5029863;28;20226;-82
2021/12/22 06:24:17;;;;;;;781.35;728.20;;;-3.30;99.90;;;;;;5030327;28;20202;-84
2021/12/22 06:26:44;;;;;;;767.72;715.83;;;-3.30;99.90;;;;;;5034650;28;20189;-83
2021/12/22 06:29:10;;;;;;;769.83;717.83;;;-3.30;99.90;;;;;;5037414;28;20194;-83
2021/12/22 06:31:37;;;;;;;768.45;716.33;;;-3.30;99.90;;;;;;5036740;28;20194;-83
2021/12/22 06:34:05;;;;;;;758.63;706.85;;;-3.40;99.90;;;;;;5030515;28;20200;-83
2021/12/22 06:36:32;;;;;;;767.45;715.63;;;-3.40;99.90;;;;;;5031096;28;20258;-83
2021/12/22 06:38:59;;;;;;;775.88;722.78;;;-3.40;99.90;;;;;;5029645;28;20218;-83
2021/12/22 06:41:26;;;;;;;765.50;713.03;;;-3.20;99.90;;;;;;5030672;28;20206;-84
2021/12/22 06:43:53;;;;;;;753.00;700.92;;;-3.30;99.90;;;;;;5036212;28;20177;-82
2021/12/22 06:46:19;;;;;;;754.83;702.55;;;-3.30;99.90;;;;;;5037865;28;20188;-82
2021/12/22 06:48:46;;;;;;;767.65;714.95;;;-3.20;99.90;;;;;;5037310;28;20174;-83
2021/12/22 06:51:14;;;;;;;753.20;700.40;;;-3.20;99.90;;;;;;5033085;28;20197;-82
2021/12/22 06:53:41;;;;;;;755.92;704.03;;;-3.20;99.90;;;;;;5032132;28;20209;-83
2021/12/22 06:56:08;;;;;;;754.45;701.63;;;-3.10;99.90;;;;;;5030725;28;20199;-83
2021/12/22 06:58:34;;;;;;;748.15;695.25;;;-3.10;99.90;;;;;;5030389;28;20218;-83
2021/12/22 07:01:01;;;;;;;749.95;696.53;;;-3.10;99.90;;;;;;5029533;28;20573;-83
2021/12/22 07:03:28;;;;;;;752.75;700.42;;;-2.90;99.90;;;;;;5029432;28;20218;-84
2021/12/22 07:05:55;;;;;;;738.35;687.38;;;-2.90;99.90;;;;;;5028507;28;20198;-83
2021/12/22 07:08:23;;;;;;;734.13;683.17;;;-2.90;99.90;;;;;;5029013;28;20195;-83
2021/12/22 07:10:50;;;;;;;741.72;690.25;;;-2.80;99.90;;;;;;5031672;28;20202;-83
2021/12/22 07:13:17;;;;;;;757.97;706.75;;;-2.80;99.90;;;;;;5033261;28;20238;-83
2021/12/22 07:15:44;;;;;;;758.45;707.45;;;-2.90;99.90;;;;;;5033547;28;20201;-83
2021/12/22 07:18:12;;;;;;;754.95;704.00;;;-2.90;99.90;;;;;;5031431;28;20257;-82
2021/12/22 07:20:39;;;;;;;751.63;701.00;;;-2.90;99.90;;;;;;5032895;28;20197;-83
2021/12/22 07:23:06;;;;;;;765.08;714.55;;;-2.90;99.90;;;;;;5034930;23;20227;-81
2021/12/22 07:25:34;;;;;;;760.63;710.45;;;-3.00;99.90;;;;;;5004206;28;20194;-82
2021/12/22 07:28:01;;;;;;;765.83;714.67;;;-3.00;99.90;;;;;;5019097;28;20198;-82
2021/12/22 07:30:28;;;;;;;765.00;714.85;;;-2.90;99.90;;;;;;5008954;28;20279;-82
2021/12/22 07:32:55;;;;;;;756.20;706.50;;;-3.00;99.90;;;;;;4999835;28;20634;-83
2021/12/22 07:35:30;;;;;;;754.15;703.92;;;-2.90;99.90;;;;;;4999551;28;20242;-83
2021/12/22 07:38:02;;;;;;;749.92;700.22;;;-3.40;99.90;;;;;;5004009;28;20210;-82
2021/12/22 07:40:37;;;;;;;761.08;710.78;;;-2.80;99.90;;;;;;5013445;28;20202;-82
2021/12/22 07:43:09;;;;;;;740.50;691.05;;;-2.90;99.90;;;;;;5017622;28;20214;-82
2021/12/22 07:45:45;;;;;;;754.50;704.97;;;-3.00;99.90;;;;;;4998531;28;20216;-82
2021/12/22 07:48:12;;;;;;;749.50;699.65;;;-3.00;99.90;;;;;;5011576;28;20214;-82
2021/12/22 07:51:01;;;;;;;729.55;680.38;;;-2.80;99.90;;;;;;5002972;28;20191;-81
2021/12/22 07:53:28;;;;;;;736.97;687.85;;;-3.00;99.90;;;;;;5007482;28;20207;-80
2021/12/22 07:55:55;;;;;;;750.78;701.42;;;-2.90;99.90;;;;;;5004146;28;20198;-81
2021/12/22 07:58:24;;;;;;;744.05;694.53;;;-2.90;99.90;;;;;;4997126;28;20211;-81
2021/12/22 08:00:55;;;;;;;725.45;676.30;;;-2.80;99.90;;;;;;5006427;28;20222;-80
2021/12/22 08:03:25;;;;;;;727.67;678.85;;;-2.80;99.90;;;;;;5017746;28;20211;-81
2021/12/22 08:05:57;;;;;;;749.83;700.15;;;-2.70;99.90;;;;;;5025220;28;20206;-81
2021/12/22 08:20:56;;;;;;;724.10;674.90;;;-2.60;99.90;;;;;;4960019;28;20267;-80
2021/12/22 08:23:23;;;;;;;725.38;677.20;;;-2.60;99.90;;;;;;4990503;28;20377;-80
2021/12/22 08:25:50;;;;;;;717.28;669.38;;;-2.60;99.90;;;;;;4995901;28;20346;-80
2021/12/22 08:28:16;;;;;;;712.72;665.00;;;-2.60;99.90;;;;;;4977172;28;20198;-79
2021/12/22 08:30:49;;;;;;;720.50;672.50;;;-2.60;99.90;;;;;;4978523;28;20209;-81
2021/12/22 08:33:22;;;;;;;738.90;689.25;;;-2.50;99.90;;;;;;4985652;28;20211;-80
2021/12/22 08:38:53;;;;;;;722.42;674.65;;;-2.30;99.90;;;;;;4957880;29;20755;-81
2021/12/22 08:41:21;;;;;;;724.85;677.30;;;-2.30;99.90;;;;;;4963302;28;20204;-81
2021/12/22 08:43:48;;;;;;;724.50;678.58;;;-2.20;99.90;;;;;;4977047;28;20215;-81
2021/12/22 08:46:16;;;;;;;724.58;677.95;;;-2.20;99.90;;;;;;4979638;28;20198;-82
2021/12/22 08:48:43;;;;;;;722.38;675.63;;;-2.10;99.90;;;;;;4996104;28;20581;-81
2021/12/22 08:51:10;;;;;;;715.42;669.85;;;-2.00;99.90;;;;;;4994688;28;20434;-81
2021/12/22 08:53:37;;;;;;;729.22;683.40;;;-2.00;99.90;;;;;;4996223;28;20226;-81
2021/12/22 08:56:05;;;;;;;726.58;682.00;;;-1.90;99.90;;;;;;4994256;28;20199;-81
2021/12/22 08:58:32;;;;;;;727.78;682.65;;;-1.80;99.90;;;;;;4987719;28;20207;-81
2021/12/22 09:00:59;;;;;;;721.42;677.50;;;-1.70;99.90;;;;;;4995590;28;20206;-81
2021/12/22 09:03:27;;;;;;;723.08;680.20;;;-1.60;99.90;;;;;;4995249;28;20594;-82
2021/12/22 09:05:54;;;;;;;720.05;677.35;;;-1.60;99.90;;;;;;4995897;28;20725;-81
2021/12/22 09:08:21;;;;;;;720.25;677.45;;;-1.60;99.90;;;;;;4976441;28;20191;-81
2021/12/22 09:10:47;;;;;;;709.80;669.50;;;-1.50;99.90;;;;;;4976191;28;20196;-82
2021/12/22 09:13:15;;;;;;;706.90;669.03;;;-1.50;99.90;;;;;;4988263;28;20221;-82
2021/12/22 09:15:42;;;;;;;695.57;658.73;;;-1.40;99.90;;;;;;4976757;28;20274;-82
2021/12/22 09:18:09;;;;;;;691.37;655.57;;;-1.30;99.90;;;;;;4976453;28;20463;-80
2021/12/22 09:20:37;;;;;;;661.67;628.10;;;-1.30;99.90;;;;;;4976158;28;20451;-81
2021/12/22 09:23:04;;;;;;;635.63;605.67;;;-1.20;99.90;;;;;;4976208;28;20598;-81
2021/12/22 09:25:30;;;;;;;646.60;615.23;;;-1.20;99.90;;;;;;4976068;28;20196;-80
2021/12/22 09:27:58;;;;;;;633.30;603.60;;;-1.10;99.90;;;;;;4977494;28;20461;-82
2021/12/22 09:30:25;;;;;;;621.17;590.83;;;-1.10;99.90;;;;;;4988272;28;20450;-81
2021/12/22 09:32:52;;;;;;;634.00;604.70;;;-1.00;99.90;;;;;;4978079;28;20219;-80
2021/12/22 09:35:19;;;;;;;589.72;564.08;;;-0.90;99.90;;;;;;4992743;28;20461;-82
2021/12/22 09:37:47;;;;;;;559.13;535.45;;;-0.90;99.90;;;;;;4984790;28;20200;-82
2021/12/22 09:40:13;;;;;;;590.93;565.70;;;-0.80;99.90;;;;;;4976003;28;20229;-82
2021/12/22 09:42:40;;;;;;;513.50;491.98;;;-0.70;99.90;;;;;;4985938;28;20471;-82
2021/12/22 09:45:09;;;;;;;513.23;492.90;;;-0.60;99.90;;;;;;4985437;28;20195;-81
2021/12/22 09:47:50;;;;;;;509.52;488.52;;;-0.60;99.90;;;;;;4984040;28;20967;-81
2021/12/22 09:50:34;;;;;;;309.95;298.40;;;-0.50;99.90;;;;;;4995196;28;20460;-82
2021/12/22 09:53:02;;;;;;;323.73;312.00;;;-0.40;99.90;;;;;;4983608;28;20225;-81
2021/12/22 09:55:33;;;;;;;292.63;282.50;;;-0.20;99.90;;;;;;4982329;28;20454;-82
2021/12/22 09:58:01;;;;;;;310.67;299.47;;;-0.20;99.90;;;;;;4994997;28;20462;-81
2021/12/22 10:00:28;;;;;;;239.93;230.95;;;-0.20;99.90;;;;;;4988900;28;20851;-81
2021/12/22 10:02:54;;;;;;;230.20;221.90;;;-0.20;99.90;;;;;;4975189;28;20219;-81
2021/12/22 10:05:21;;;;;;;251.80;242.40;;;-0.10;99.90;;;;;;4980140;28;20953;-82
2021/12/22 10:08:06;;;;;;;248.70;239.70;;;0.00;99.90;;;;;;4995222;28;20450;-81
2021/12/22 10:10:33;;;;;;;236.18;227.50;;;0.10;99.90;;;;;;4987713;28;20462;-82
2021/12/22 10:13:06;;;;;;;211.03;202.87;;;0.00;99.90;;;;;;4979597;28;20223;-80
2021/12/22 10:15:35;;;;;;;199.00;191.20;;;0.10;99.90;;;;;;4990204;28;20489;-81
2021/12/22 10:18:09;;;;;;;216.57;208.50;;;0.10;99.90;;;;;;4979819;28;20946;-81
2021/12/22 10:20:36;;;;;;;129.33;123.33;;;0.20;99.90;;;;;;4978282;28;20540;-81
2021/12/22 10:23:03;;;;;;;121.28;115.68;;;0.20;99.90;;;;;;4976168;28;20487;-81
2021/12/22 10:25:33;;;;;;;111.17;105.57;;;0.20;99.90;;;;;;4978874;28;20206;-82
2021/12/22 10:28:01;;;;;;;114.00;108.70;;;0.30;99.90;;;;;;4986093;28;20502;-81
2021/12/22 10:30:32;;;;;;;116.53;111.23;;;0.30;99.90;;;;;;4989229;28;20454;-81
2021/12/22 10:33:08;;;;;;;149.17;142.23;;;0.40;99.90;;;;;;4975931;28;20479;-82
2021/12/22 10:35:38;;;;;;;119.13;113.97;;;0.50;99.90;;;;;;4974284;28;20458;-82
2021/12/22 10:38:08;;;;;;;63.20;59.23;;;0.50;99.90;;;;;;4991059;28;20454;-80
2021/12/22 10:40:38;;;;;;;66.65;62.25;;;0.60;99.90;;;;;;4993533;28;20485;-82
2021/12/22 10:43:06;;;;;;;104.10;99.03;;;0.60;99.90;;;;;;4978079;28;20695;-82
2021/12/22 10:45:35;;;;;;;52.83;49.30;;;0.70;99.90;;;;;;4995966;28;20465;-83
2021/12/22 10:50:54;;;;;;;32.27;28.80;;;0.80;99.90;;;;;;4987115;28;20444;-81
2021/12/22 10:53:20;;;;;;;33.47;30.10;;;0.70;99.90;;;;;;4997781;28;21021;-81
2021/12/22 10:55:51;;;;;;;29.97;27.10;;;0.80;99.90;;;;;;4988743;28;20451;-82
2021/12/22 10:58:23;;;;;;;25.27;22.77;;;0.80;99.90;;;;;;4978299;28;20521;-81
2021/12/22 11:01:02;;;;;;;24.57;22.23;;;0.80;99.90;;;;;;4986268;28;20478;-80
2021/12/22 11:03:38;;;;;;;24.37;21.47;;;0.80;99.90;;;;;;4990957;28;20866;-81
2021/12/22 11:06:11;;;;;;;26.70;22.17;;;0.90;99.90;;;;;;4978803;28;20493;-81
2021/12/22 11:08:38;;;;;;;31.73;26.13;;;1.00;99.90;;;;;;4986600;28;20454;-81
2021/12/22 11:11:14;;;;;;;26.73;24.20;;;1.00;99.90;;;;;;4997788;28;20467;-81
2021/12/22 11:13:40;;;;;;;23.73;19.13;;;1.10;99.90;;;;;;4997114;28;20668;-81
2021/12/22 11:16:12;;;;;;;25.13;22.20;;;1.20;99.90;;;;;;4989717;28;20977;-81
2021/12/22 11:18:39;;;;;;;24.40;18.13;;;1.30;99.90;;;;;;4997313;28;20454;-81
2021/12/22 11:21:12;;;;;;;24.43;17.57;;;1.30;99.90;;;;;;4997988;28;20456;-81
2021/12/22 11:23:40;;;;;;;18.00;15.20;;;1.30;99.90;;;;;;4997703;28;20517;-81
2021/12/22 11:26:07;;;;;;;21.90;15.87;;;1.30;99.90;;;;;;4996985;28;20453;-82
2021/12/22 11:28:36;;;;;;;22.40;16.93;;;1.40;99.90;;;;;;4997431;28;20454;-81
2021/12/22 11:31:04;;;;;;;21.87;15.30;;;1.40;99.90;;;;;;4997164;28;20485;-81
2021/12/22 11:33:32;;;;;;;22.77;15.53;;;1.50;99.90;;;;;;4997267;28;20482;-82
2021/12/22 11:36:00;;;;;;;17.97;13.90;;;1.60;99.90;;;;;;4997241;28;20454;-81
2021/12/22 11:38:30;;;;;;;22.73;15.70;;;1.70;99.90;;;;;;4997107;28;20481;-83
2021/12/22 11:41:08;;;;;;;18.87;13.57;;;1.80;99.90;;;;;;4997327;28;20481;-81
2021/12/22 11:43:38;;;;;;;20.80;13.70;;;1.90;98.50;;;;;;4997133;28;20509;-81
2021/12/22 11:46:06;;;;;;;20.70;13.53;;;2.10;96.80;;;;;;4997380;28;20454;-82
2021/12/22 11:48:35;;;;;;;22.00;13.37;;;2.00;96.20;;;;;;4997074;28;20461;-81
2021/12/22 11:51:03;;;;;;;17.33;11.37;;;2.10;95.80;;;;;;4996866;28;20461;-82
2021/12/22 11:53:50;;;;;;;20.57;12.73;;;2.20;94.30;;;;;;4996864;28;20474;-81
2021/12/22 11:56:36;;;;;;;21.63;13.90;;;2.40;94.30;;;;;;4995291;28;20453;-82
2021/12/22 11:59:04;;;;;;;19.10;12.77;;;2.60;93.50;;;;;;4995388;28;20512;-82
2021/12/22 12:01:31;;;;;;;18.20;13.33;;;2.80;92.70;;;;;;4996602;28;20454;-82
2021/12/22 12:04:12;;;;;;;17.30;13.30;;;3.00;90.50;;;;;;4996846;28;20485;-81
2021/12/22 12:06:47;;;;;;;16.50;12.30;;;3.00;90.40;;;;;;4996038;28;20516;-82
2021/12/22 12:09:14;;;;;;;18.60;12.60;;;3.50;90.40;;;;;;4996398;28;20453;-82
2021/12/22 12:11:46;;;;;;;19.33;12.43;;;3.80;87.90;;;;;;4996605;28;20464;-82
2021/12/22 12:15:03;;;;;;;24.60;14.50;;;4.10;84.70;;;;;;4996261;28;20454;-82
2021/12/22 12:23:23;;;;;;;19.50;11.67;;;4.60;78.10;;;;;;4996611;28;20480;-82
2021/12/22 12:25:51;;;;;;;17.93;12.60;;;4.80;73.50;;;;;;4996347;28;20458;-82
2021/12/22 12:28:20;;;;;;;20.57;13.30;;;4.70;74.60;;;;;;4996851;28;20462;-82
2021/12/22 12:30:50;;;;;;;19.57;13.07;;;4.80;73.50;;;;;;4997062;28;20447;-81
2021/12/22 12:33:22;;;;;;;18.90;13.07;;;5.10;73.80;;;;;;4996456;28;20481;-82
2021/12/22 12:35:58;;;;;;;17.40;11.93;;;5.30;72.80;;;;;;4997281;28;20454;-81
2021/12/22 12:38:30;;;;;;;19.37;13.33;;;5.40;69.90;;;;;;4996209;28;20453;-82
2021/12/22 12:41:14;;;;;;;16.57;11.47;;;5.70;66.40;;;;;;4997126;28;20478;-81
2021/12/22 12:43:51;;;;;;;18.43;12.20;;;6.00;64.70;;;;;;4996804;28;21023;-82
2021/12/22 12:46:51;;;;;;;16.20;12.23;;;5.50;61.30;;;;;;4997137;28;20458;-81
2021/12/22 12:49:43;;;;;;;13.87;10.93;;;5.30;64.30;;;;;;4996551;28;20533;-81
2021/12/22 12:52:19;;;;;;;17.57;12.97;;;5.00;61.00;;;;;;4996264;28;20993;-82
2021/12/22 12:54:48;;;;;;;18.63;11.87;;;5.00;62.90;;;;;;4996536;28;20461;-81